Ribera, New Mexico
Current Conditions -  °F | °C
As of 2:53 AM on Thursday 23 Oct 2014 (Local Time) from KLVS Reporting Station
Clear Clear  
Wind Chill: 41°   Ceiling: Unl
Heat Index: 44°   Visibility: 10mi
Dew Point: 32°   Wind: 6mph
Humidity: 63%   Direction: 140°SE
Pressure: 30.24"   Gusts: NA
Location:  35.38°N, 105.45°W
Report Text: KLVS 230853Z AUTO 14005KT 10SM CLR 07/00 A3024 RMK AO2 SLP158 T00670000 51003
Loading
Personal Weather Stations






























Interactive Weather Map
Tropical Storm Tracking
New forecast layout! Learn more

10-Day Weather Forecast

Advertisements
Track Severe Weather on mobile